createdAt,value
2023-09-28T00:00:35.032Z,52.22
2023-09-28T00:03:02.656Z,52.12
2023-09-28T00:05:29.782Z,52.31
2023-09-28T00:07:57.402Z,51.93
2023-09-28T00:10:24.579Z,52.00
2023-09-28T00:12:53.543Z,52.03
2023-09-28T00:15:21.436Z,51.87
2023-09-28T00:17:49.248Z,51.96
2023-09-28T00:20:21.260Z,51.94
2023-09-28T00:22:49.861Z,52.45
2023-09-28T00:25:17.795Z,52.56
2023-09-28T00:27:46.201Z,52.99
2023-09-28T00:30:15.107Z,52.88
2023-09-28T00:32:45.067Z,52.79
2023-09-28T00:35:12.474Z,53.24
2023-09-28T00:37:39.839Z,53.86
2023-09-28T00:40:17.883Z,54.81
2023-09-28T00:42:49.290Z,55.59
2023-09-28T00:45:16.197Z,56.33
2023-09-28T00:47:44.384Z,57.38
2023-09-28T00:50:15.774Z,58.43
2023-09-28T00:52:44.202Z,58.86
2023-09-28T00:55:14.110Z,59.60
2023-09-28T00:57:43.254Z,60.41
2023-09-28T01:00:22.229Z,60.59
2023-09-28T01:02:52.651Z,60.83
2023-09-28T01:05:26.708Z,60.75
2023-09-28T01:07:54.243Z,61.52
2023-09-28T01:10:30.782Z,62.09
2023-09-28T01:12:58.092Z,62.74
2023-09-28T01:15:26.025Z,63.12
2023-09-28T01:17:53.670Z,64.28
2023-09-28T01:20:26.791Z,64.76
2023-09-28T01:22:55.123Z,65.15
2023-09-28T01:25:22.331Z,65.29
2023-09-28T01:27:49.526Z,65.02
2023-09-28T01:30:17.866Z,64.27
2023-09-28T01:32:44.920Z,64.46
2023-09-28T01:35:14.995Z,64.46
2023-09-28T01:38:00.338Z,64.42
2023-09-28T01:40:27.284Z,64.46
2023-09-28T01:42:54.836Z,65.62
2023-09-28T01:45:23.109Z,65.69
2023-09-28T01:47:50.488Z,66.47
2023-09-28T01:50:18.220Z,67.00
2023-09-28T01:52:45.982Z,67.58
2023-09-28T01:55:12.994Z,67.90
2023-09-28T01:57:39.971Z,68.24
2023-09-28T02:00:15.351Z,68.37
2023-09-28T02:02:44.018Z,68.95
2023-09-28T02:05:14.110Z,69.01
2023-09-28T02:07:41.702Z,69.42
2023-09-28T02:10:11.278Z,69.18
2023-09-28T02:12:48.267Z,69.77
2023-09-28T02:15:18.392Z,70.29
2023-09-28T02:17:46.124Z,70.09
2023-09-28T02:20:20.239Z,70.06
2023-09-28T02:22:48.270Z,70.17
2023-09-28T02:25:19.088Z,70.25
2023-09-28T02:27:49.955Z,71.79
2023-09-28T02:30:20.612Z,71.65
2023-09-28T02:32:49.059Z,70.61
2023-09-28T02:35:18.317Z,70.71
2023-09-28T02:37:49.911Z,71.29
2023-09-28T02:40:19.120Z,70.83
2023-09-28T02:42:49.475Z,70.00
2023-09-28T02:45:16.739Z,70.84
2023-09-28T02:47:45.748Z,70.84
2023-09-28T02:50:14.821Z,72.16
2023-09-28T02:52:44.287Z,72.69
2023-09-28T02:55:13.091Z,73.39
2023-09-28T02:57:42.540Z,73.56
2023-09-28T03:00:43.116Z,74.18
2023-09-28T03:03:11.101Z,74.51
2023-09-28T03:05:39.843Z,74.48
2023-09-28T03:08:13.349Z,74.57
2023-09-28T03:10:44.547Z,74.56
2023-09-28T03:13:15.371Z,74.58
2023-09-28T03:15:44.830Z,74.67
2023-09-28T03:18:14.102Z,74.94
2023-09-28T03:20:46.109Z,74.57
2023-09-28T03:23:14.986Z,75.24
2023-09-28T03:25:43.961Z,75.73
2023-09-28T03:28:11.073Z,76.21
2023-09-28T03:30:38.126Z,76.88
2023-09-28T03:33:05.410Z,77.81
2023-09-28T03:35:32.585Z,78.56
2023-09-28T03:38:00.144Z,78.82
2023-09-28T03:40:35.154Z,78.65
2023-09-28T03:43:02.650Z,78.79
2023-09-28T03:45:29.755Z,78.78
2023-09-28T03:47:56.716Z,78.96
2023-09-28T03:50:24.934Z,78.37
2023-09-28T03:52:52.603Z,77.97
2023-09-28T03:55:23.231Z,77.97
2023-09-28T03:57:51.395Z,77.93
2023-09-28T04:00:19.851Z,78.64
2023-09-28T04:02:52.811Z,78.92
2023-09-28T04:05:21.225Z,79.11
2023-09-28T04:07:48.415Z,78.46
2023-09-28T04:10:16.063Z,78.15
2023-09-28T04:12:43.483Z,77.82
2023-09-28T04:15:10.970Z,77.96
2023-09-28T04:17:40.609Z,78.01
2023-09-28T04:20:13.081Z,77.68
2023-09-28T04:22:40.786Z,77.84
2023-09-28T04:25:08.565Z,77.32
2023-09-28T04:27:35.759Z,76.29
2023-09-28T04:30:02.845Z,73.90
2023-09-28T04:32:29.977Z,73.81
2023-09-28T04:34:57.448Z,73.17
2023-09-28T04:37:26.721Z,73.58
2023-09-28T04:39:54.433Z,74.10
2023-09-28T04:42:24.190Z,75.11
2023-09-28T04:44:51.231Z,75.76
2023-09-28T04:47:18.964Z,75.86
2023-09-28T04:49:46.978Z,76.64
2023-09-28T04:52:15.133Z,77.47
2023-09-28T04:54:43.025Z,77.59
2023-09-28T04:57:10.138Z,77.66
2023-09-28T04:59:41.922Z,77.88
2023-09-28T05:02:09.802Z,78.01
2023-09-28T05:04:37.105Z,77.12
2023-09-28T05:07:07.445Z,76.37
2023-09-28T05:09:35.392Z,75.92
2023-09-28T05:12:04.991Z,76.48
2023-09-28T05:14:32.827Z,77.12
2023-09-28T05:17:00.311Z,77.19
2023-09-28T05:19:27.644Z,76.23
2023-09-28T05:21:54.889Z,74.98
2023-09-28T05:24:22.189Z,72.93
2023-09-28T05:26:50.077Z,70.86
2023-09-28T05:29:17.518Z,69.51
2023-09-28T05:31:46.187Z,68.44
2023-09-28T05:34:13.207Z,67.72
2023-09-28T05:36:40.352Z,65.72
2023-09-28T05:39:09.932Z,64.66
2023-09-28T05:41:37.386Z,64.26
2023-09-28T05:44:04.856Z,63.52
2023-09-28T05:46:32.348Z,61.80
2023-09-28T05:48:59.645Z,61.00
2023-09-28T05:51:26.680Z,60.48
2023-09-28T05:53:54.786Z,58.99
2023-09-28T05:56:22.800Z,58.14
2023-09-28T05:58:50.288Z,57.97
2023-09-28T06:01:22.736Z,57.50
2023-09-28T06:03:50.004Z,56.98
2023-09-28T06:06:20.924Z,56.49
2023-09-28T06:08:48.212Z,56.64
2023-09-28T06:11:16.592Z,54.73
2023-09-28T06:14:00.978Z,54.45
2023-09-28T06:16:37.654Z,54.55
2023-09-28T06:19:05.372Z,54.67
2023-09-28T06:21:32.518Z,54.51
2023-09-28T06:24:00.268Z,54.63
2023-09-28T06:26:41.357Z,53.96
2023-09-28T06:29:10.283Z,53.58
2023-09-28T06:31:38.133Z,53.36
2023-09-28T06:34:05.524Z,52.75
2023-09-28T06:39:05.503Z,51.88
2023-09-28T06:41:32.489Z,51.72
2023-09-28T06:43:59.546Z,51.50
2023-09-28T06:46:27.069Z,51.33
2023-09-28T06:48:54.392Z,51.11
2023-09-28T06:51:23.508Z,50.61
2023-09-28T06:53:50.966Z,50.78
2023-09-28T06:56:18.182Z,50.40
2023-09-28T06:58:47.562Z,50.20
2023-09-28T07:01:14.662Z,50.15
2023-09-28T07:03:43.402Z,49.95
2023-09-28T07:06:10.959Z,49.97
2023-09-28T07:08:38.197Z,49.54
2023-09-28T07:11:05.841Z,49.63
2023-09-28T07:13:32.919Z,49.91
2023-09-28T07:16:00.251Z,49.87
2023-09-28T07:18:27.918Z,49.10
2023-09-28T07:20:55.214Z,49.78
2023-09-28T07:23:22.431Z,49.85
2023-09-28T07:25:52.643Z,50.17
2023-09-28T07:28:21.667Z,50.64
2023-09-28T07:30:49.157Z,50.94
2023-09-28T07:33:17.688Z,51.05
2023-09-28T07:35:45.815Z,50.38
2023-09-28T07:38:13.743Z,50.82
2023-09-28T07:43:11.334Z,51.05
2023-09-28T07:45:38.698Z,50.51
2023-09-28T07:48:07.092Z,50.27
2023-09-28T07:50:37.452Z,50.62
2023-09-28T07:53:04.941Z,50.33
2023-09-28T07:55:32.383Z,50.19
2023-09-28T07:58:11.992Z,49.86
2023-09-28T08:00:49.938Z,49.31
2023-09-28T08:03:16.980Z,49.01
2023-09-28T08:05:45.745Z,49.51
2023-09-28T08:08:16.906Z,49.69
2023-09-28T08:10:45.897Z,49.67
2023-09-28T08:13:13.883Z,49.53
2023-09-28T08:15:42.460Z,49.18
2023-09-28T08:18:10.897Z,49.43
2023-09-28T08:20:41.931Z,48.64
2023-09-28T08:23:22.063Z,47.90
2023-09-28T08:25:49.479Z,47.76
2023-09-28T08:28:16.590Z,46.97
2023-09-28T08:30:46.477Z,47.12
2023-09-28T08:33:13.752Z,47.77
2023-09-28T08:35:41.209Z,47.53
2023-09-28T08:38:08.333Z,47.24
2023-09-28T08:40:35.507Z,46.05
2023-09-28T08:43:06.419Z,45.74
2023-09-28T08:45:34.415Z,45.31
2023-09-28T08:48:05.451Z,45.15
2023-09-28T08:50:39.607Z,45.08
2023-09-28T08:53:07.754Z,44.37
2023-09-28T08:55:35.504Z,44.63
2023-09-28T08:58:04.149Z,44.24
2023-09-28T09:00:31.721Z,44.44
2023-09-28T09:03:00.458Z,44.46
2023-09-28T09:05:30.937Z,43.87
2023-09-28T09:08:03.299Z,43.68
2023-09-28T09:10:32.466Z,42.73
2023-09-28T09:12:59.734Z,42.46
2023-09-28T09:15:27.205Z,43.42
2023-09-28T09:18:02.144Z,44.03
2023-09-28T09:20:32.470Z,44.54
2023-09-28T09:23:13.099Z,44.69
2023-09-28T09:25:55.130Z,44.24
2023-09-28T09:28:36.068Z,43.29
2023-09-28T09:31:03.532Z,42.97
2023-09-28T09:33:30.682Z,42.57
2023-09-28T09:35:59.511Z,42.35
2023-09-28T09:38:31.289Z,41.13
2023-09-28T09:41:04.112Z,41.00
2023-09-28T09:43:33.656Z,41.24
2023-09-28T09:46:04.900Z,40.29
2023-09-28T09:48:42.527Z,40.39
2023-09-28T09:51:14.971Z,39.84
2023-09-28T09:53:44.905Z,39.07
2023-09-28T09:56:15.588Z,39.26
2023-09-28T09:58:51.219Z,38.59
2023-09-28T10:01:19.499Z,38.30
2023-09-28T10:03:52.826Z,38.63
2023-09-28T10:06:21.977Z,38.99
2023-09-28T10:08:55.251Z,38.28
2023-09-28T10:11:23.913Z,38.83
2023-09-28T10:13:51.868Z,40.46
2023-09-28T10:16:20.434Z,40.98
2023-09-28T10:18:49.804Z,41.21
2023-09-28T10:21:18.435Z,40.61
2023-09-28T10:23:45.935Z,40.55
2023-09-28T10:26:16.079Z,40.51
2023-09-28T10:29:05.710Z,40.13
2023-09-28T10:34:28.515Z,38.48
2023-09-28T10:37:28.497Z,38.87
2023-09-28T10:39:56.267Z,38.38
2023-09-28T10:42:24.402Z,38.43
2023-09-28T10:44:58.114Z,37.89
2023-09-28T10:50:21.185Z,36.56
2023-09-28T10:52:48.610Z,36.20
2023-09-28T10:55:17.775Z,35.67
2023-09-28T10:57:45.498Z,34.80
2023-09-28T11:00:13.933Z,34.95
2023-09-28T11:02:43.059Z,33.75
2023-09-28T11:05:12.210Z,34.52
2023-09-28T11:07:39.832Z,34.93
2023-09-28T11:12:55.260Z,34.17
2023-09-28T11:15:23.948Z,33.76
2023-09-28T11:20:37.453Z,33.70
2023-09-28T11:23:05.926Z,32.98
2023-09-28T11:25:45.492Z,33.03
2023-09-28T11:31:25.234Z,32.09
2023-09-28T11:33:52.957Z,31.50
2023-09-28T11:36:22.655Z,31.25
2023-09-28T11:38:51.109Z,31.87
2023-09-28T11:44:02.521Z,30.76
2023-09-28T11:46:32.542Z,30.53
2023-09-28T11:49:17.940Z,30.62
2023-09-28T11:51:45.383Z,31.07
2023-09-28T11:54:17.613Z,31.59
2023-09-28T11:56:48.393Z,31.35
2023-09-28T11:59:17.067Z,30.98
2023-09-28T12:01:48.918Z,30.15
2023-09-28T12:04:16.620Z,30.32
2023-09-28T12:06:45.552Z,30.93
2023-09-28T12:11:57.510Z,30.19
2023-09-28T12:14:24.796Z,30.20
2023-09-28T12:16:54.103Z,29.05
2023-09-28T12:19:22.686Z,29.24
2023-09-28T12:21:50.026Z,29.95
2023-09-28T12:24:17.104Z,29.91
2023-09-28T12:26:44.530Z,29.60
2023-09-28T12:29:12.098Z,29.98
2023-09-28T12:31:39.223Z,29.10
2023-09-28T12:34:06.686Z,29.12
2023-09-28T12:36:34.266Z,29.08
2023-09-28T12:39:01.797Z,28.47
2023-09-28T12:41:28.994Z,28.54
2023-09-28T12:43:56.539Z,27.65
2023-09-28T12:46:24.119Z,28.36
2023-09-28T12:48:54.172Z,28.16
2023-09-28T12:51:21.305Z,28.30
2023-09-28T12:53:48.661Z,28.65
2023-09-28T12:56:17.954Z,29.04
2023-09-28T12:58:45.146Z,29.45
2023-09-28T13:01:13.355Z,29.68
2023-09-28T13:03:41.028Z,30.02
2023-09-28T13:06:10.923Z,30.05
2023-09-28T13:08:38.436Z,29.41
2023-09-28T13:11:08.515Z,29.07
2023-09-28T13:13:38.933Z,29.06
2023-09-28T13:16:07.945Z,29.01
2023-09-28T13:18:36.814Z,29.68
2023-09-28T13:21:10.527Z,29.32
2023-09-28T13:23:37.962Z,29.97
2023-09-28T13:26:06.293Z,30.14
2023-09-28T13:28:36.303Z,30.52
2023-09-28T13:31:09.000Z,30.69
2023-09-28T13:33:40.204Z,30.87
2023-09-28T13:36:09.067Z,30.57
2023-09-28T13:38:36.987Z,29.83
2023-09-28T13:41:14.334Z,29.55
2023-09-28T13:43:44.470Z,28.81
2023-09-28T13:46:11.705Z,28.51
2023-09-28T13:48:39.288Z,28.00
2023-09-28T13:51:06.658Z,28.22
2023-09-28T13:53:35.858Z,27.49
2023-09-28T13:56:04.621Z,27.64
2023-09-28T13:58:32.748Z,28.35
2023-09-28T14:01:00.462Z,28.55
2023-09-28T14:03:29.032Z,28.79
2023-09-28T14:05:56.147Z,29.20
2023-09-28T14:08:23.981Z,29.67
2023-09-28T14:10:51.621Z,30.44
2023-09-28T14:13:18.744Z,30.30
2023-09-28T14:15:46.487Z,30.18
2023-09-28T14:18:13.532Z,29.91
2023-09-28T14:20:40.899Z,29.70
2023-09-28T14:23:07.964Z,30.18
2023-09-28T14:25:35.435Z,30.52
2023-09-28T14:28:02.633Z,31.29
2023-09-28T14:30:29.969Z,30.99
2023-09-28T14:32:57.131Z,31.79
2023-09-28T14:35:25.661Z,31.84
2023-09-28T14:37:52.738Z,32.48
2023-09-28T14:40:19.727Z,32.74
2023-09-28T14:42:47.091Z,32.69
2023-09-28T14:45:14.655Z,32.99
2023-09-28T14:47:42.767Z,33.46
2023-09-28T14:50:11.729Z,33.50
2023-09-28T14:52:39.646Z,32.89
2023-09-28T14:55:07.744Z,30.92
2023-09-28T14:57:34.877Z,29.44
2023-09-28T15:00:02.532Z,28.69
2023-09-28T15:02:29.657Z,27.71
2023-09-28T15:04:56.865Z,27.24
2023-09-28T15:07:23.843Z,26.25
2023-09-28T15:09:50.828Z,26.90
2023-09-28T15:12:19.892Z,27.89
2023-09-28T15:14:46.814Z,29.23
2023-09-28T15:17:14.896Z,29.94
2023-09-28T15:19:41.883Z,30.37
2023-09-28T15:22:08.883Z,29.04
2023-09-28T15:24:35.842Z,29.35
2023-09-28T15:27:04.148Z,30.48
2023-09-28T15:29:31.205Z,31.19
2023-09-28T15:31:58.350Z,31.32
2023-09-28T15:34:25.337Z,31.77
2023-09-28T15:36:52.329Z,32.45
2023-09-28T15:39:19.291Z,31.91
2023-09-28T15:41:47.616Z,31.26
2023-09-28T15:44:14.619Z,30.31
2023-09-28T15:46:42.475Z,30.37
2023-09-28T15:49:10.147Z,30.64
2023-09-28T15:51:37.199Z,31.18
2023-09-28T15:54:04.636Z,31.50
2023-09-28T15:56:31.805Z,32.14
2023-09-28T15:58:59.179Z,32.75
2023-09-28T16:01:28.527Z,33.26
2023-09-28T16:03:56.986Z,33.88
2023-09-28T16:06:25.226Z,34.66
2023-09-28T16:08:52.569Z,35.03
2023-09-28T16:11:19.796Z,35.87
2023-09-28T16:13:47.867Z,36.39
2023-09-28T16:16:14.938Z,36.91
2023-09-28T16:18:42.085Z,37.28
2023-09-28T16:21:09.195Z,37.57
2023-09-28T16:23:36.217Z,37.99
2023-09-28T16:26:03.367Z,38.32
2023-09-28T16:28:30.341Z,38.70
2023-09-28T16:30:57.840Z,39.18
2023-09-28T16:33:24.911Z,39.59
2023-09-28T16:35:52.060Z,39.67
2023-09-28T16:38:19.261Z,39.68
2023-09-28T16:40:46.426Z,40.03
2023-09-28T16:43:14.128Z,40.34
2023-09-28T16:45:41.605Z,40.57
2023-09-28T16:48:08.797Z,40.88
2023-09-28T16:50:35.892Z,40.75
2023-09-28T16:53:02.929Z,40.86
2023-09-28T16:55:35.403Z,41.02
2023-09-28T16:58:03.180Z,41.50
2023-09-28T17:00:30.305Z,41.98
2023-09-28T17:02:57.426Z,42.23
2023-09-28T17:05:24.531Z,42.22
2023-09-28T17:07:52.473Z,42.24
2023-09-28T17:10:24.711Z,41.99
2023-09-28T17:12:52.835Z,42.10
2023-09-28T17:15:20.132Z,41.81
2023-09-28T17:17:47.247Z,41.91
2023-09-28T17:20:14.561Z,41.72
2023-09-28T17:22:41.556Z,41.99
2023-09-28T17:25:12.279Z,42.18
2023-09-28T17:27:39.720Z,42.59
2023-09-28T17:30:09.300Z,43.00
2023-09-28T17:32:37.338Z,43.74
2023-09-28T17:35:05.597Z,44.24
2023-09-28T17:37:33.930Z,44.08
2023-09-28T17:40:00.922Z,43.62
2023-09-28T17:42:27.844Z,43.68
2023-09-28T17:44:55.104Z,43.48
2023-09-28T17:47:22.147Z,43.40
2023-09-28T17:49:49.663Z,43.25
2023-09-28T17:52:16.597Z,43.29
2023-09-28T17:54:43.552Z,43.16
2023-09-28T17:57:10.568Z,43.33
2023-09-28T17:59:37.797Z,43.37
2023-09-28T18:02:04.958Z,43.38
2023-09-28T18:04:32.043Z,43.72
2023-09-28T18:06:59.115Z,43.95
2023-09-28T18:09:26.071Z,44.30
2023-09-28T18:11:53.377Z,45.15
2023-09-28T18:14:20.387Z,45.58
2023-09-28T18:16:47.558Z,46.18
2023-09-28T18:19:15.346Z,46.50
2023-09-28T18:21:42.334Z,46.51
2023-09-28T18:24:09.780Z,47.19
2023-09-28T18:26:36.828Z,47.32
2023-09-28T18:29:04.290Z,47.51
2023-09-28T18:31:31.672Z,47.38
2023-09-28T18:33:58.871Z,47.54
2023-09-28T18:36:26.467Z,47.91
2023-09-28T18:39:07.799Z,47.86
2023-09-28T18:41:41.404Z,48.22
2023-09-28T18:44:08.400Z,48.39
2023-09-28T18:46:35.630Z,48.57
2023-09-28T18:49:02.598Z,48.59
2023-09-28T18:51:29.554Z,48.68
2023-09-28T18:53:56.638Z,48.25
2023-09-28T18:56:23.746Z,48.04
2023-09-28T18:58:50.782Z,47.84
2023-09-28T19:01:17.771Z,47.78
2023-09-28T19:03:44.718Z,47.76
2023-09-28T19:06:16.491Z,47.69
2023-09-28T19:08:43.548Z,47.94
2023-09-28T19:11:10.545Z,48.24
2023-09-28T19:13:37.490Z,48.37
2023-09-28T19:16:08.763Z,48.79
2023-09-28T19:18:36.260Z,49.35
2023-09-28T19:21:03.456Z,49.43
2023-09-28T19:23:30.461Z,49.90
2023-09-28T19:25:58.863Z,50.28
2023-09-28T19:28:26.047Z,50.59
2023-09-28T19:30:56.380Z,50.75
2023-09-28T19:33:23.703Z,50.89
2023-09-28T19:35:50.815Z,51.19
2023-09-28T19:38:17.909Z,51.29
2023-09-28T19:40:45.565Z,51.45
2023-09-28T19:43:12.643Z,51.44
2023-09-28T19:45:41.434Z,51.60
2023-09-28T19:48:09.240Z,51.65
2023-09-28T19:50:43.061Z,51.55
2023-09-28T19:53:12.478Z,51.76
2023-09-28T19:55:42.565Z,51.91
2023-09-28T19:58:09.632Z,51.78
2023-09-28T20:00:40.221Z,51.98
2023-09-28T20:03:07.527Z,52.07
2023-09-28T20:05:34.642Z,52.14
2023-09-28T20:08:01.655Z,52.30
2023-09-28T20:10:28.816Z,52.27
2023-09-28T20:13:00.316Z,52.52
2023-09-28T20:15:27.595Z,52.32
2023-09-28T20:17:54.510Z,51.96
2023-09-28T20:20:21.581Z,52.16
2023-09-28T20:22:56.439Z,52.28
2023-09-28T20:25:25.015Z,52.52
2023-09-28T20:27:52.906Z,53.02
2023-09-28T20:30:19.826Z,53.73
2023-09-28T20:32:47.755Z,54.15
2023-09-28T20:35:15.508Z,54.41
2023-09-28T20:37:42.893Z,54.51
2023-09-28T20:40:10.853Z,55.05
2023-09-28T20:42:38.861Z,54.87
2023-09-28T20:45:06.883Z,55.42
2023-09-28T20:47:36.529Z,55.58
2023-09-28T20:50:05.317Z,55.78
2023-09-28T20:52:32.597Z,56.26
2023-09-28T20:54:59.783Z,57.26
2023-09-28T20:57:27.110Z,57.89
2023-09-28T20:59:57.243Z,58.35
2023-09-28T21:02:24.452Z,58.53
2023-09-28T21:04:52.551Z,58.51
2023-09-28T21:07:19.716Z,58.74
2023-09-28T21:09:47.210Z,58.66
2023-09-28T21:12:14.760Z,58.88
2023-09-28T21:14:41.864Z,58.96
2023-09-28T21:17:09.386Z,58.72
2023-09-28T21:19:36.396Z,58.65
2023-09-28T21:22:03.304Z,58.27
2023-09-28T21:24:30.292Z,58.16
2023-09-28T21:26:57.297Z,58.62
2023-09-28T21:29:24.296Z,58.79
2023-09-28T21:31:51.289Z,59.38
2023-09-28T21:34:18.304Z,59.69
2023-09-28T21:36:45.174Z,60.06
2023-09-28T21:39:12.140Z,60.36
2023-09-28T21:41:39.179Z,60.29
2023-09-28T21:44:07.562Z,60.85
2023-09-28T21:46:34.620Z,61.31
2023-09-28T21:49:01.564Z,61.70
2023-09-28T21:51:28.509Z,61.80
2023-09-28T21:53:56.558Z,62.05
2023-09-28T21:56:23.637Z,62.25
2023-09-28T21:58:54.066Z,62.15
2023-09-28T22:01:23.288Z,61.78
2023-09-28T22:03:52.834Z,62.40
2023-09-28T22:06:20.019Z,62.25
2023-09-28T22:08:46.990Z,62.34
2023-09-28T22:11:13.877Z,62.61
2023-09-28T22:13:40.954Z,62.78
2023-09-28T22:16:07.933Z,63.38
2023-09-28T22:18:35.741Z,64.28
2023-09-28T22:21:02.740Z,64.55
2023-09-28T22:23:29.754Z,64.95
2023-09-28T22:25:57.002Z,64.87
2023-09-28T22:28:23.916Z,65.08
2023-09-28T22:30:50.929Z,65.20
2023-09-28T22:33:17.966Z,65.24
2023-09-28T22:35:45.020Z,65.00
2023-09-28T22:38:12.024Z,64.41
2023-09-28T22:40:38.915Z,64.78
2023-09-28T22:43:06.240Z,64.54
2023-09-28T22:45:34.058Z,64.15
2023-09-28T22:48:01.580Z,64.42
2023-09-28T22:50:28.902Z,64.80
2023-09-28T22:52:56.142Z,65.38
2023-09-28T22:55:23.472Z,65.88
2023-09-28T22:57:50.455Z,66.12
2023-09-28T23:00:17.624Z,66.71
2023-09-28T23:02:45.217Z,67.06
2023-09-28T23:05:13.193Z,67.55
2023-09-28T23:07:42.561Z,67.52
2023-09-28T23:10:12.613Z,67.19
2023-09-28T23:12:40.613Z,67.47
2023-09-28T23:15:08.616Z,67.54
2023-09-28T23:17:35.833Z,67.44
2023-09-28T23:20:11.268Z,67.33
2023-09-28T23:22:42.698Z,67.66
2023-09-28T23:25:14.018Z,67.50
2023-09-28T23:27:45.091Z,67.53
2023-09-28T23:30:20.808Z,67.44
2023-09-28T23:32:50.333Z,67.50
2023-09-28T23:35:24.317Z,67.19
2023-09-28T23:37:53.477Z,67.19
2023-09-28T23:40:24.065Z,66.88
2023-09-28T23:42:53.637Z,66.88
2023-09-28T23:45:24.385Z,67.25
2023-09-28T23:47:53.801Z,67.50
2023-09-28T23:50:22.867Z,67.84
2023-09-28T23:52:50.090Z,68.23
2023-09-28T23:55:17.111Z,68.62
2023-09-28T23:57:45.206Z,69.27
